sensor_id;sensor_type;location;lat;lon;timestamp;P1;durP1;ratioP1;P2;durP2;ratioP2
73729;SDS011;62036;48.128;16.458;2022-09-03T00:00:02;3.45;;;2.13;;
73729;SDS011;62036;48.128;16.458;2022-09-03T00:02:40;4.18;;;2.45;;
73729;SDS011;62036;48.128;16.458;2022-09-03T00:13:02;3.03;;;2.10;;
73729;SDS011;62036;48.128;16.458;2022-09-03T00:15:30;3.53;;;1.73;;
73729;SDS011;62036;48.128;16.458;2022-09-03T00:17:59;4.47;;;2.30;;
73729;SDS011;62036;48.128;16.458;2022-09-03T00:20:29;3.35;;;2.13;;
73729;SDS011;62036;48.128;16.458;2022-09-03T00:22:57;3.42;;;1.92;;
73729;SDS011;62036;48.128;16.458;2022-09-03T00:25:26;3.00;;;1.88;;
73729;SDS011;62036;48.128;16.458;2022-09-03T00:27:54;2.53;;;1.83;;
73729;SDS011;62036;48.128;16.458;2022-09-03T00:30:21;3.35;;;1.88;;
73729;SDS011;62036;48.128;16.458;2022-09-03T00:32:54;4.10;;;2.33;;
73729;SDS011;62036;48.128;16.458;2022-09-03T00:35:29;3.67;;;2.17;;
73729;SDS011;62036;48.128;16.458;2022-09-03T00:37:57;2.03;;;1.80;;
73729;SDS011;62036;48.128;16.458;2022-09-03T00:40:42;2.80;;;1.75;;
73729;SDS011;62036;48.128;16.458;2022-09-03T00:50:46;3.80;;;1.92;;
73729;SDS011;62036;48.128;16.458;2022-09-03T00:53:27;2.10;;;1.70;;
73729;SDS011;62036;48.128;16.458;2022-09-03T00:56:07;2.35;;;1.85;;
73729;SDS011;62036;48.128;16.458;2022-09-03T01:01:14;3.13;;;1.83;;
73729;SDS011;62036;48.128;16.458;2022-09-03T01:08:50;3.50;;;1.85;;
73729;SDS011;62036;48.128;16.458;2022-09-03T01:11:26;3.70;;;1.83;;
73729;SDS011;62036;48.128;16.458;2022-09-03T01:16:43;3.42;;;1.65;;
73729;SDS011;62036;48.128;16.458;2022-09-03T01:24:57;3.65;;;1.80;;
73729;SDS011;62036;48.128;16.458;2022-09-03T01:27:30;5.68;;;2.20;;
73729;SDS011;62036;48.128;16.458;2022-09-03T01:30:04;3.75;;;2.17;;
73729;SDS011;62036;48.128;16.458;2022-09-03T01:33:18;2.67;;;1.77;;
73729;SDS011;62036;48.128;16.458;2022-09-03T01:43:36;4.65;;;2.17;;
73729;SDS011;62036;48.128;16.458;2022-09-03T01:46:17;3.80;;;2.15;;
73729;SDS011;62036;48.128;16.458;2022-09-03T02:04:32;5.78;;;2.42;;
73729;SDS011;62036;48.128;16.458;2022-09-03T02:06:59;2.83;;;2.10;;
73729;SDS011;62036;48.128;16.458;2022-09-03T02:09:26;2.22;;;2.00;;
73729;SDS011;62036;48.128;16.458;2022-09-03T02:11:53;4.97;;;2.47;;
73729;SDS011;62036;48.128;16.458;2022-09-03T02:14:21;4.90;;;2.33;;
73729;SDS011;62036;48.128;16.458;2022-09-03T02:16:48;6.18;;;2.05;;
73729;SDS011;62036;48.128;16.458;2022-09-03T02:19:14;4.45;;;2.42;;
73729;SDS011;62036;48.128;16.458;2022-09-03T02:21:44;3.70;;;2.50;;
73729;SDS011;62036;48.128;16.458;2022-09-03T02:24:12;4.72;;;2.38;;
73729;SDS011;62036;48.128;16.458;2022-09-03T02:26:38;4.32;;;2.70;;
73729;SDS011;62036;48.128;16.458;2022-09-03T02:29:04;3.50;;;2.38;;
73729;SDS011;62036;48.128;16.458;2022-09-03T02:31:30;4.53;;;2.42;;
73729;SDS011;62036;48.128;16.458;2022-09-03T02:33:57;3.00;;;2.47;;
73729;SDS011;62036;48.128;16.458;2022-09-03T02:36:28;3.65;;;2.40;;
73729;SDS011;62036;48.128;16.458;2022-09-03T02:38:55;2.42;;;2.05;;
73729;SDS011;62036;48.128;16.458;2022-09-03T02:41:21;4.00;;;2.58;;
73729;SDS011;62036;48.128;16.458;2022-09-03T02:43:56;5.22;;;2.80;;
73729;SDS011;62036;48.128;16.458;2022-09-03T02:46:26;4.45;;;2.75;;
73729;SDS011;62036;48.128;16.458;2022-09-03T02:48:53;4.80;;;2.83;;
73729;SDS011;62036;48.128;16.458;2022-09-03T02:51:20;4.40;;;2.70;;
73729;SDS011;62036;48.128;16.458;2022-09-03T02:53:46;4.85;;;2.80;;
73729;SDS011;62036;48.128;16.458;2022-09-03T02:56:12;4.30;;;2.90;;
73729;SDS011;62036;48.128;16.458;2022-09-03T02:58:38;3.95;;;2.45;;
73729;SDS011;62036;48.128;16.458;2022-09-03T03:01:05;3.47;;;2.83;;
73729;SDS011;62036;48.128;16.458;2022-09-03T03:03:31;3.88;;;2.50;;
73729;SDS011;62036;48.128;16.458;2022-09-03T03:05:58;7.03;;;3.17;;
73729;SDS011;62036;48.128;16.458;2022-09-03T03:08:26;2.97;;;2.70;;
73729;SDS011;62036;48.128;16.458;2022-09-03T03:10:53;5.82;;;3.03;;
73729;SDS011;62036;48.128;16.458;2022-09-03T03:13:26;4.68;;;2.85;;
73729;SDS011;62036;48.128;16.458;2022-09-03T03:15:59;5.53;;;2.45;;
73729;SDS011;62036;48.128;16.458;2022-09-03T03:18:25;3.50;;;2.63;;
73729;SDS011;62036;48.128;16.458;2022-09-03T03:20:52;6.80;;;3.03;;
73729;SDS011;62036;48.128;16.458;2022-09-03T03:23:18;4.20;;;3.45;;
73729;SDS011;62036;48.128;16.458;2022-09-03T03:25:44;6.25;;;3.30;;
73729;SDS011;62036;48.128;16.458;2022-09-03T03:28:10;5.30;;;3.25;;
73729;SDS011;62036;48.128;16.458;2022-09-03T03:30:38;4.03;;;3.03;;
73729;SDS011;62036;48.128;16.458;2022-09-03T03:33:10;3.35;;;2.92;;
73729;SDS011;62036;48.128;16.458;2022-09-03T03:35:36;4.97;;;3.00;;
73729;SDS011;62036;48.128;16.458;2022-09-03T03:38:02;7.32;;;2.92;;
73729;SDS011;62036;48.128;16.458;2022-09-03T03:40:29;4.95;;;3.00;;
73729;SDS011;62036;48.128;16.458;2022-09-03T03:42:56;3.17;;;2.83;;
73729;SDS011;62036;48.128;16.458;2022-09-03T03:45:22;3.28;;;2.85;;
73729;SDS011;62036;48.128;16.458;2022-09-03T03:47:48;3.92;;;3.15;;
73729;SDS011;62036;48.128;16.458;2022-09-03T03:50:14;3.05;;;2.75;;
73729;SDS011;62036;48.128;16.458;2022-09-03T03:52:41;4.18;;;3.03;;
73729;SDS011;62036;48.128;16.458;2022-09-03T03:55:07;4.32;;;3.20;;
73729;SDS011;62036;48.128;16.458;2022-09-03T03:57:33;4.00;;;3.05;;
73729;SDS011;62036;48.128;16.458;2022-09-03T04:00:00;3.97;;;2.85;;
73729;SDS011;62036;48.128;16.458;2022-09-03T04:02:26;3.83;;;2.72;;
73729;SDS011;62036;48.128;16.458;2022-09-03T04:04:52;3.85;;;2.70;;
73729;SDS011;62036;48.128;16.458;2022-09-03T04:07:18;5.22;;;3.40;;
73729;SDS011;62036;48.128;16.458;2022-09-03T04:09:44;5.85;;;3.08;;
73729;SDS011;62036;48.128;16.458;2022-09-03T04:12:11;3.35;;;3.10;;
73729;SDS011;62036;48.128;16.458;2022-09-03T04:14:37;3.92;;;3.05;;
73729;SDS011;62036;48.128;16.458;2022-09-03T04:17:03;3.60;;;3.17;;
73729;SDS011;62036;48.128;16.458;2022-09-03T04:19:29;5.55;;;3.60;;
73729;SDS011;62036;48.128;16.458;2022-09-03T04:21:55;3.40;;;3.10;;
73729;SDS011;62036;48.128;16.458;2022-09-03T04:24:21;4.97;;;2.90;;
73729;SDS011;62036;48.128;16.458;2022-09-03T04:26:47;4.10;;;3.25;;
73729;SDS011;62036;48.128;16.458;2022-09-03T04:29:18;4.93;;;3.38;;
73729;SDS011;62036;48.128;16.458;2022-09-03T04:31:45;4.50;;;3.28;;
73729;SDS011;62036;48.128;16.458;2022-09-03T04:34:30;4.18;;;3.17;;
73729;SDS011;62036;48.128;16.458;2022-09-03T04:36:56;5.90;;;4.13;;
73729;SDS011;62036;48.128;16.458;2022-09-03T04:39:25;4.47;;;3.70;;
73729;SDS011;62036;48.128;16.458;2022-09-03T04:41:51;3.40;;;3.10;;
73729;SDS011;62036;48.128;16.458;2022-09-03T04:44:17;4.55;;;3.72;;
73729;SDS011;62036;48.128;16.458;2022-09-03T04:46:43;4.72;;;3.80;;
73729;SDS011;62036;48.128;16.458;2022-09-03T04:49:11;4.40;;;3.65;;
73729;SDS011;62036;48.128;16.458;2022-09-03T04:51:37;5.53;;;4.07;;
73729;SDS011;62036;48.128;16.458;2022-09-03T04:54:03;4.35;;;3.80;;
73729;SDS011;62036;48.128;16.458;2022-09-03T04:56:31;4.68;;;3.83;;
73729;SDS011;62036;48.128;16.458;2022-09-03T04:58:58;6.80;;;3.88;;
73729;SDS011;62036;48.128;16.458;2022-09-03T05:01:25;4.85;;;3.95;;
73729;SDS011;62036;48.128;16.458;2022-09-03T05:03:51;5.57;;;4.00;;
73729;SDS011;62036;48.128;16.458;2022-09-03T05:06:18;4.45;;;3.45;;
73729;SDS011;62036;48.128;16.458;2022-09-03T05:08:50;5.97;;;3.90;;
73729;SDS011;62036;48.128;16.458;2022-09-03T05:11:17;7.00;;;4.15;;
73729;SDS011;62036;48.128;16.458;2022-09-03T05:13:46;6.13;;;4.28;;
73729;SDS011;62036;48.128;16.458;2022-09-03T05:16:13;4.68;;;3.50;;
73729;SDS011;62036;48.128;16.458;2022-09-03T05:18:39;4.88;;;4.13;;
73729;SDS011;62036;48.128;16.458;2022-09-03T05:21:10;5.95;;;4.32;;
73729;SDS011;62036;48.128;16.458;2022-09-03T05:23:40;5.57;;;4.25;;
73729;SDS011;62036;48.128;16.458;2022-09-03T05:26:07;4.05;;;3.63;;
73729;SDS011;62036;48.128;16.458;2022-09-03T05:28:34;6.28;;;3.90;;
73729;SDS011;62036;48.128;16.458;2022-09-03T05:31:05;4.43;;;4.00;;
73729;SDS011;62036;48.128;16.458;2022-09-03T05:33:35;7.40;;;4.82;;
73729;SDS011;62036;48.128;16.458;2022-09-03T05:36:05;6.03;;;4.25;;
73729;SDS011;62036;48.128;16.458;2022-09-03T05:38:31;4.63;;;4.00;;
73729;SDS011;62036;48.128;16.458;2022-09-03T05:40:58;7.75;;;4.13;;
73729;SDS011;62036;48.128;16.458;2022-09-03T05:43:24;4.35;;;3.95;;
73729;SDS011;62036;48.128;16.458;2022-09-03T05:45:50;7.22;;;4.80;;
73729;SDS011;62036;48.128;16.458;2022-09-03T05:48:16;5.03;;;4.07;;
73729;SDS011;62036;48.128;16.458;2022-09-03T05:50:42;5.22;;;4.40;;
73729;SDS011;62036;48.128;16.458;2022-09-03T05:53:08;5.20;;;4.32;;
73729;SDS011;62036;48.128;16.458;2022-09-03T05:55:34;6.88;;;4.85;;
73729;SDS011;62036;48.128;16.458;2022-09-03T05:58:00;8.63;;;4.40;;
73729;SDS011;62036;48.128;16.458;2022-09-03T06:00:26;5.43;;;4.53;;
73729;SDS011;62036;48.128;16.458;2022-09-03T06:02:52;5.25;;;4.72;;
73729;SDS011;62036;48.128;16.458;2022-09-03T06:05:18;5.57;;;5.00;;
73729;SDS011;62036;48.128;16.458;2022-09-03T06:07:44;5.38;;;4.28;;
73729;SDS011;62036;48.128;16.458;2022-09-03T06:10:16;5.22;;;4.72;;
73729;SDS011;62036;48.128;16.458;2022-09-03T06:12:42;6.20;;;4.40;;
73729;SDS011;62036;48.128;16.458;2022-09-03T06:17:39;7.63;;;4.32;;
73729;SDS011;62036;48.128;16.458;2022-09-03T06:20:05;6.20;;;4.13;;
73729;SDS011;62036;48.128;16.458;2022-09-03T06:22:31;6.18;;;4.65;;
73729;SDS011;62036;48.128;16.458;2022-09-03T06:24:57;5.38;;;4.38;;
73729;SDS011;62036;48.128;16.458;2022-09-03T06:27:23;7.95;;;4.70;;
73729;SDS011;62036;48.128;16.458;2022-09-03T06:29:49;5.07;;;4.03;;
73729;SDS011;62036;48.128;16.458;2022-09-03T06:32:15;5.38;;;3.90;;
73729;SDS011;62036;48.128;16.458;2022-09-03T06:34:42;5.78;;;3.83;;
73729;SDS011;62036;48.128;16.458;2022-09-03T06:37:08;8.15;;;3.70;;
73729;SDS011;62036;48.128;16.458;2022-09-03T06:39:34;5.75;;;3.80;;
73729;SDS011;62036;48.128;16.458;2022-09-03T06:42:00;3.65;;;3.30;;
73729;SDS011;62036;48.128;16.458;2022-09-03T06:44:26;4.90;;;3.58;;
73729;SDS011;62036;48.128;16.458;2022-09-03T06:46:52;4.82;;;3.15;;
73729;SDS011;62036;48.128;16.458;2022-09-03T06:49:18;3.92;;;3.25;;
73729;SDS011;62036;48.128;16.458;2022-09-03T06:51:45;5.20;;;3.97;;
73729;SDS011;62036;48.128;16.458;2022-09-03T06:54:11;5.10;;;3.20;;
73729;SDS011;62036;48.128;16.458;2022-09-03T06:56:40;5.10;;;4.05;;
73729;SDS011;62036;48.128;16.458;2022-09-03T06:59:10;5.28;;;3.60;;
73729;SDS011;62036;48.128;16.458;2022-09-03T07:01:36;5.65;;;3.22;;
73729;SDS011;62036;48.128;16.458;2022-09-03T07:04:06;4.88;;;2.80;;
73729;SDS011;62036;48.128;16.458;2022-09-03T07:06:34;4.53;;;3.40;;
73729;SDS011;62036;48.128;16.458;2022-09-03T07:09:04;4.28;;;3.38;;
73729;SDS011;62036;48.128;16.458;2022-09-03T07:11:30;4.05;;;3.33;;
73729;SDS011;62036;48.128;16.458;2022-09-03T07:13:57;6.80;;;3.40;;
73729;SDS011;62036;48.128;16.458;2022-09-03T07:16:25;4.65;;;3.00;;
73729;SDS011;62036;48.128;16.458;2022-09-03T07:18:52;4.65;;;3.13;;
73729;SDS011;62036;48.128;16.458;2022-09-03T07:21:19;4.28;;;3.03;;
73729;SDS011;62036;48.128;16.458;2022-09-03T07:23:45;7.07;;;3.20;;
73729;SDS011;62036;48.128;16.458;2022-09-03T07:26:13;5.03;;;2.72;;
73729;SDS011;62036;48.128;16.458;2022-09-03T07:28:40;3.72;;;2.70;;
73729;SDS011;62036;48.128;16.458;2022-09-03T07:31:11;5.07;;;2.45;;
73729;SDS011;62036;48.128;16.458;2022-09-03T07:33:37;5.78;;;2.78;;
73729;SDS011;62036;48.128;16.458;2022-09-03T07:36:07;3.15;;;2.20;;
73729;SDS011;62036;48.128;16.458;2022-09-03T07:38:34;3.85;;;2.30;;
73729;SDS011;62036;48.128;16.458;2022-09-03T07:41:01;5.75;;;2.38;;
73729;SDS011;62036;48.128;16.458;2022-09-03T07:43:27;2.60;;;2.22;;
73729;SDS011;62036;48.128;16.458;2022-09-03T07:45:54;6.82;;;2.50;;
73729;SDS011;62036;48.128;16.458;2022-09-03T07:48:21;3.55;;;2.30;;
73729;SDS011;62036;48.128;16.458;2022-09-03T07:50:47;5.35;;;2.63;;
73729;SDS011;62036;48.128;16.458;2022-09-03T07:53:16;2.45;;;2.03;;
73729;SDS011;62036;48.128;16.458;2022-09-03T07:55:44;4.25;;;2.92;;
73729;SDS011;62036;48.128;16.458;2022-09-03T07:58:10;7.40;;;3.05;;
73729;SDS011;62036;48.128;16.458;2022-09-03T08:00:38;4.85;;;2.30;;
73729;SDS011;62036;48.128;16.458;2022-09-03T08:03:04;3.50;;;2.15;;
73729;SDS011;62036;48.128;16.458;2022-09-03T08:05:33;2.60;;;2.03;;
73729;SDS011;62036;48.128;16.458;2022-09-03T08:08:00;2.83;;;2.05;;
73729;SDS011;62036;48.128;16.458;2022-09-03T08:10:27;3.00;;;2.33;;
73729;SDS011;62036;48.128;16.458;2022-09-03T08:12:56;2.85;;;2.25;;
73729;SDS011;62036;48.128;16.458;2022-09-03T08:15:23;3.72;;;2.42;;
73729;SDS011;62036;48.128;16.458;2022-09-03T08:17:50;3.55;;;2.30;;
73729;SDS011;62036;48.128;16.458;2022-09-03T08:20:16;3.15;;;2.55;;
73729;SDS011;62036;48.128;16.458;2022-09-03T08:22:42;4.32;;;2.65;;
73729;SDS011;62036;48.128;16.458;2022-09-03T08:25:08;3.85;;;2.40;;
73729;SDS011;62036;48.128;16.458;2022-09-03T08:27:34;2.70;;;1.80;;
73729;SDS011;62036;48.128;16.458;2022-09-03T08:30:00;5.82;;;2.60;;
73729;SDS011;62036;48.128;16.458;2022-09-03T08:32:28;3.05;;;2.22;;
73729;SDS011;62036;48.128;16.458;2022-09-03T08:34:54;6.63;;;2.13;;
73729;SDS011;62036;48.128;16.458;2022-09-03T08:37:20;4.28;;;3.17;;
73729;SDS011;62036;48.128;16.458;2022-09-03T08:39:53;3.28;;;1.85;;
73729;SDS011;62036;48.128;16.458;2022-09-03T08:44:52;3.28;;;2.10;;
73729;SDS011;62036;48.128;16.458;2022-09-03T08:52:45;7.40;;;2.17;;
73729;SDS011;62036;48.128;16.458;2022-09-03T08:58:09;4.50;;;2.50;;
73729;SDS011;62036;48.128;16.458;2022-09-03T09:00:48;2.75;;;1.88;;
73729;SDS011;62036;48.128;16.458;2022-09-03T09:05:49;3.42;;;2.10;;
73729;SDS011;62036;48.128;16.458;2022-09-03T09:10:53;2.15;;;1.70;;
73729;SDS011;62036;48.128;16.458;2022-09-03T09:13:26;3.53;;;1.73;;
73729;SDS011;62036;48.128;16.458;2022-09-03T09:23:45;1.90;;;1.63;;
73729;SDS011;62036;48.128;16.458;2022-09-03T09:26:15;3.13;;;1.80;;
73729;SDS011;62036;48.128;16.458;2022-09-03T09:28:42;2.53;;;2.00;;
73729;SDS011;62036;48.128;16.458;2022-09-03T09:31:10;2.60;;;1.85;;
73729;SDS011;62036;48.128;16.458;2022-09-03T09:33:39;6.10;;;2.72;;
73729;SDS011;62036;48.128;16.458;2022-09-03T09:36:07;2.65;;;1.70;;
73729;SDS011;62036;48.128;16.458;2022-09-03T09:38:36;3.22;;;1.73;;
73729;SDS011;62036;48.128;16.458;2022-09-03T09:43:37;2.67;;;1.48;;
73729;SDS011;62036;48.128;16.458;2022-09-03T09:46:20;3.05;;;1.85;;
73729;SDS011;62036;48.128;16.458;2022-09-03T09:48:50;3.20;;;2.00;;
73729;SDS011;62036;48.128;16.458;2022-09-03T09:51:18;2.75;;;1.70;;
73729;SDS011;62036;48.128;16.458;2022-09-03T09:53:45;3.55;;;2.10;;
73729;SDS011;62036;48.128;16.458;2022-09-03T09:56:21;2.05;;;1.83;;
73729;SDS011;62036;48.128;16.458;2022-09-03T09:58:47;3.08;;;1.73;;
73729;SDS011;62036;48.128;16.458;2022-09-03T10:01:17;2.53;;;1.75;;
73729;SDS011;62036;48.128;16.458;2022-09-03T10:03:56;2.28;;;1.85;;
73729;SDS011;62036;48.128;16.458;2022-09-03T10:06:23;2.08;;;1.42;;
73729;SDS011;62036;48.128;16.458;2022-09-03T10:09:10;5.55;;;1.80;;
73729;SDS011;62036;48.128;16.458;2022-09-03T10:11:37;2.72;;;1.75;;
73729;SDS011;62036;48.128;16.458;2022-09-03T10:14:10;2.47;;;1.70;;
73729;SDS011;62036;48.128;16.458;2022-09-03T10:16:38;3.40;;;1.73;;
73729;SDS011;62036;48.128;16.458;2022-09-03T10:19:11;3.63;;;1.73;;
73729;SDS011;62036;48.128;16.458;2022-09-03T10:21:40;1.98;;;1.73;;
73729;SDS011;62036;48.128;16.458;2022-09-03T10:26:53;3.05;;;1.67;;
73729;SDS011;62036;48.128;16.458;2022-09-03T10:29:21;2.80;;;1.60;;
73729;SDS011;62036;48.128;16.458;2022-09-03T10:34:43;2.17;;;1.73;;
73729;SDS011;62036;48.128;16.458;2022-09-03T10:37:17;2.20;;;1.85;;
73729;SDS011;62036;48.128;16.458;2022-09-03T10:49:50;2.65;;;1.70;;
73729;SDS011;62036;48.128;16.458;2022-09-03T10:52:31;1.80;;;1.60;;
73729;SDS011;62036;48.128;16.458;2022-09-03T10:55:06;1.75;;;1.63;;
73729;SDS011;62036;48.128;16.458;2022-09-03T11:00:04;2.53;;;1.73;;
73729;SDS011;62036;48.128;16.458;2022-09-03T11:05:13;3.20;;;1.63;;
73729;SDS011;62036;48.128;16.458;2022-09-03T11:07:42;2.70;;;1.70;;
73729;SDS011;62036;48.128;16.458;2022-09-03T11:10:11;1.98;;;1.33;;
73729;SDS011;62036;48.128;16.458;2022-09-03T11:12:41;2.17;;;1.70;;
73729;SDS011;62036;48.128;16.458;2022-09-03T11:15:10;4.30;;;1.80;;
73729;SDS011;62036;48.128;16.458;2022-09-03T11:17:39;3.53;;;1.48;;
73729;SDS011;62036;48.128;16.458;2022-09-03T11:20:22;4.80;;;1.67;;
73729;SDS011;62036;48.128;16.458;2022-09-03T11:22:49;4.97;;;3.38;;
73729;SDS011;62036;48.128;16.458;2022-09-03T11:25:17;4.32;;;1.90;;
73729;SDS011;62036;48.128;16.458;2022-09-03T11:28:12;3.03;;;1.60;;
73729;SDS011;62036;48.128;16.458;2022-09-03T11:33:05;3.03;;;1.63;;
73729;SDS011;62036;48.128;16.458;2022-09-03T11:38:04;2.17;;;1.38;;
73729;SDS011;62036;48.128;16.458;2022-09-03T11:40:35;2.75;;;1.58;;
73729;SDS011;62036;48.128;16.458;2022-09-03T11:43:05;2.97;;;1.50;;
73729;SDS011;62036;48.128;16.458;2022-09-03T11:47:58;2.28;;;1.40;;
73729;SDS011;62036;48.128;16.458;2022-09-03T11:50:26;2.47;;;1.50;;
73729;SDS011;62036;48.128;16.458;2022-09-03T11:52:53;4.93;;;1.70;;
73729;SDS011;62036;48.128;16.458;2022-09-03T11:55:30;3.30;;;1.50;;
73729;SDS011;62036;48.128;16.458;2022-09-03T12:00:23;2.42;;;1.40;;
73729;SDS011;62036;48.128;16.458;2022-09-03T12:02:53;4.18;;;1.40;;
73729;SDS011;62036;48.128;16.458;2022-09-03T12:08:15;3.35;;;1.50;;
73729;SDS011;62036;48.128;16.458;2022-09-03T12:13:15;2.67;;;1.48;;
73729;SDS011;62036;48.128;16.458;2022-09-03T12:18:20;4.68;;;1.70;;
73729;SDS011;62036;48.128;16.458;2022-09-03T12:25:57;2.90;;;1.90;;
73729;SDS011;62036;48.128;16.458;2022-09-03T12:28:23;3.65;;;1.60;;
73729;SDS011;62036;48.128;16.458;2022-09-03T12:30:51;1.98;;;1.30;;
73729;SDS011;62036;48.128;16.458;2022-09-03T12:33:21;1.80;;;1.33;;
73729;SDS011;62036;48.128;16.458;2022-09-03T12:35:56;2.40;;;1.23;;
73729;SDS011;62036;48.128;16.458;2022-09-03T12:38:23;2.25;;;1.45;;
73729;SDS011;62036;48.128;16.458;2022-09-03T12:40:50;1.48;;;1.23;;
73729;SDS011;62036;48.128;16.458;2022-09-03T12:43:16;2.90;;;1.33;;
73729;SDS011;62036;48.128;16.458;2022-09-03T12:45:44;2.47;;;1.27;;
73729;SDS011;62036;48.128;16.458;2022-09-03T12:48:16;1.55;;;1.30;;
73729;SDS011;62036;48.128;16.458;2022-09-03T12:50:44;1.40;;;1.10;;
73729;SDS011;62036;48.128;16.458;2022-09-03T12:53:11;2.38;;;1.27;;
73729;SDS011;62036;48.128;16.458;2022-09-03T12:55:42;2.72;;;1.30;;
73729;SDS011;62036;48.128;16.458;2022-09-03T13:00:40;1.90;;;1.20;;
73729;SDS011;62036;48.128;16.458;2022-09-03T13:03:09;2.22;;;1.15;;
73729;SDS011;62036;48.128;16.458;2022-09-03T13:05:41;1.42;;;1.33;;
73729;SDS011;62036;48.128;16.458;2022-09-03T13:08:08;3.33;;;1.45;;
73729;SDS011;62036;48.128;16.458;2022-09-03T13:10:39;2.63;;;1.38;;
73729;SDS011;62036;48.128;16.458;2022-09-03T13:13:15;2.08;;;1.15;;
73729;SDS011;62036;48.128;16.458;2022-09-03T13:15:52;1.50;;;1.20;;
73729;SDS011;62036;48.128;16.458;2022-09-03T13:34:02;3.00;;;1.52;;
73729;SDS011;62036;48.128;16.458;2022-09-03T13:36:33;4.15;;;1.55;;
73729;SDS011;62036;48.128;16.458;2022-09-03T13:39:02;1.95;;;1.23;;
73729;SDS011;62036;48.128;16.458;2022-09-03T13:41:36;2.95;;;1.33;;
73729;SDS011;62036;48.128;16.458;2022-09-03T13:46:52;2.78;;;1.30;;
73729;SDS011;62036;48.128;16.458;2022-09-03T13:49:32;1.95;;;1.23;;
73729;SDS011;62036;48.128;16.458;2022-09-03T13:52:20;1.35;;;1.05;;
73729;SDS011;62036;48.128;16.458;2022-09-03T13:54:53;2.58;;;1.23;;
73729;SDS011;62036;48.128;16.458;2022-09-03T13:57:32;2.75;;;1.23;;
73729;SDS011;62036;48.128;16.458;2022-09-03T14:00:09;1.92;;;1.10;;
73729;SDS011;62036;48.128;16.458;2022-09-03T14:08:26;1.45;;;1.20;;
73729;SDS011;62036;48.128;16.458;2022-09-03T14:20:54;3.63;;;2.20;;
73729;SDS011;62036;48.128;16.458;2022-09-03T14:23:27;6.78;;;1.60;;
73729;SDS011;62036;48.128;16.458;2022-09-03T14:25:56;2.00;;;1.27;;
73729;SDS011;62036;48.128;16.458;2022-09-03T14:28:33;2.70;;;1.48;;
73729;SDS011;62036;48.128;16.458;2022-09-03T14:31:11;4.55;;;1.50;;
73729;SDS011;62036;48.128;16.458;2022-09-03T14:33:47;1.75;;;1.13;;
73729;SDS011;62036;48.128;16.458;2022-09-03T14:36:21;2.63;;;1.35;;
73729;SDS011;62036;48.128;16.458;2022-09-03T14:39:02;1.50;;;1.30;;
73729;SDS011;62036;48.128;16.458;2022-09-03T14:42:15;1.58;;;1.38;;
73729;SDS011;62036;48.128;16.458;2022-09-03T14:59:38;2.78;;;1.30;;
73729;SDS011;62036;48.128;16.458;2022-09-03T15:09:55;1.90;;;1.25;;
73729;SDS011;62036;48.128;16.458;2022-09-03T15:15:05;2.08;;;1.27;;
73729;SDS011;62036;48.128;16.458;2022-09-03T15:20:02;1.92;;;1.30;;
73729;SDS011;62036;48.128;16.458;2022-09-03T15:22:45;2.30;;;1.40;;
73729;SDS011;62036;48.128;16.458;2022-09-03T15:27:52;3.08;;;1.50;;
73729;SDS011;62036;48.128;16.458;2022-09-03T15:30:22;2.33;;;1.13;;
73729;SDS011;62036;48.128;16.458;2022-09-03T15:38:07;1.65;;;1.30;;
73729;SDS011;62036;48.128;16.458;2022-09-03T15:43:08;5.72;;;3.65;;
73729;SDS011;62036;48.128;16.458;2022-09-03T15:46:27;6.07;;;3.03;;
73729;SDS011;62036;48.128;16.458;2022-09-03T15:48:45;2.28;;;1.83;;
73729;SDS011;62036;48.128;16.458;2022-09-03T15:53:55;5.07;;;1.52;;
73729;SDS011;62036;48.128;16.458;2022-09-03T16:04:38;2.63;;;1.42;;
73729;SDS011;62036;48.128;16.458;2022-09-03T16:06:57;2.40;;;1.95;;
73729;SDS011;62036;48.128;16.458;2022-09-03T16:17:50;4.03;;;1.80;;
73729;SDS011;62036;48.128;16.458;2022-09-03T16:20:21;3.13;;;1.90;;
73729;SDS011;62036;48.128;16.458;2022-09-03T16:25:51;3.70;;;1.80;;
73729;SDS011;62036;48.128;16.458;2022-09-03T16:31:06;3.15;;;1.45;;
73729;SDS011;62036;48.128;16.458;2022-09-03T16:33:40;1.70;;;1.60;;
73729;SDS011;62036;48.128;16.458;2022-09-03T16:46:29;4.00;;;2.20;;
73729;SDS011;62036;48.128;16.458;2022-09-03T17:07:27;2.33;;;1.42;;
73729;SDS011;62036;48.128;16.458;2022-09-03T17:25:48;4.20;;;3.80;;
73729;SDS011;62036;48.128;16.458;2022-09-03T17:36:21;1.60;;;1.50;;
73729;SDS011;62036;48.128;16.458;2022-09-03T17:46:27;3.13;;;2.10;;
73729;SDS011;62036;48.128;16.458;2022-09-03T17:49:02;2.75;;;2.33;;
73729;SDS011;62036;48.128;16.458;2022-09-03T18:01:27;2.40;;;1.98;;
73729;SDS011;62036;48.128;16.458;2022-09-03T18:03:58;2.22;;;1.60;;
73729;SDS011;62036;48.128;16.458;2022-09-03T18:06:32;2.63;;;1.63;;
73729;SDS011;62036;48.128;16.458;2022-09-03T18:11:58;1.40;;;1.30;;
73729;SDS011;62036;48.128;16.458;2022-09-03T18:17:00;1.52;;;1.42;;
73729;SDS011;62036;48.128;16.458;2022-09-03T18:19:45;1.50;;;1.40;;
73729;SDS011;62036;48.128;16.458;2022-09-03T18:22:35;3.47;;;1.50;;
73729;SDS011;62036;48.128;16.458;2022-09-03T18:25:21;3.03;;;1.80;;
73729;SDS011;62036;48.128;16.458;2022-09-03T18:28:09;1.98;;;1.40;;
73729;SDS011;62036;48.128;16.458;2022-09-03T18:30:56;2.85;;;1.50;;
73729;SDS011;62036;48.128;16.458;2022-09-03T18:33:40;3.47;;;1.75;;
73729;SDS011;62036;48.128;16.458;2022-09-03T18:36:25;2.35;;;1.50;;
73729;SDS011;62036;48.128;16.458;2022-09-03T18:39:14;7.22;;;1.63;;
73729;SDS011;62036;48.128;16.458;2022-09-03T18:48:10;3.35;;;2.00;;
73729;SDS011;62036;48.128;16.458;2022-09-03T18:51:05;6.20;;;2.95;;
73729;SDS011;62036;48.128;16.458;2022-09-03T18:56:46;7.00;;;3.78;;
73729;SDS011;62036;48.128;16.458;2022-09-03T19:02:11;7.68;;;2.80;;
73729;SDS011;62036;48.128;16.458;2022-09-03T19:05:12;2.45;;;1.73;;
73729;SDS011;62036;48.128;16.458;2022-09-03T19:10:55;3.25;;;1.90;;
73729;SDS011;62036;48.128;16.458;2022-09-03T19:13:41;5.15;;;1.80;;
73729;SDS011;62036;48.128;16.458;2022-09-03T19:22:01;3.63;;;2.38;;
73729;SDS011;62036;48.128;16.458;2022-09-03T19:24:49;9.55;;;2.28;;
73729;SDS011;62036;48.128;16.458;2022-09-03T19:30:25;2.40;;;1.80;;
73729;SDS011;62036;48.128;16.458;2022-09-03T19:33:14;2.63;;;1.60;;
73729;SDS011;62036;48.128;16.458;2022-09-03T19:41:56;3.72;;;2.00;;
73729;SDS011;62036;48.128;16.458;2022-09-03T19:45:28;4.07;;;1.88;;
73729;SDS011;62036;48.128;16.458;2022-09-03T19:47:57;2.00;;;1.80;;
73729;SDS011;62036;48.128;16.458;2022-09-03T19:50:50;2.08;;;1.50;;
73729;SDS011;62036;48.128;16.458;2022-09-03T19:53:38;3.35;;;1.50;;
73729;SDS011;62036;48.128;16.458;2022-09-03T19:56:27;2.40;;;1.65;;
73729;SDS011;62036;48.128;16.458;2022-09-03T19:59:14;5.32;;;1.73;;
73729;SDS011;62036;48.128;16.458;2022-09-03T20:02:01;3.42;;;1.65;;
73729;SDS011;62036;48.128;16.458;2022-09-03T20:04:59;2.60;;;1.48;;
73729;SDS011;62036;48.128;16.458;2022-09-03T20:07:45;4.57;;;1.80;;
73729;SDS011;62036;48.128;16.458;2022-09-03T20:10:30;3.50;;;1.65;;
73729;SDS011;62036;48.128;16.458;2022-09-03T20:13:08;2.30;;;1.90;;
73729;SDS011;62036;48.128;16.458;2022-09-03T20:20:52;1.67;;;1.58;;
73729;SDS011;62036;48.128;16.458;2022-09-03T20:23:29;2.90;;;2.13;;
73729;SDS011;62036;48.128;16.458;2022-09-03T20:26:40;4.97;;;2.03;;
73729;SDS011;62036;48.128;16.458;2022-09-03T20:42:09;2.22;;;2.00;;
73729;SDS011;62036;48.128;16.458;2022-09-03T20:52:59;5.15;;;1.73;;
73729;SDS011;62036;48.128;16.458;2022-09-03T20:55:33;3.28;;;1.98;;